This is the latest recevied weather packets stored in our database for station/object KO4ZGL-13. If no packets are shown the sender has not sent any weather packets the latest 10 day(s).
| Time | Temp. | Humidity | Pressure | Rain* | Wind** | Luminosity | Snow |
|---|---|---|---|---|---|---|---|
| 1777909779 | 24.44° C | 51% | 1019.1 hPa | 0 mm | - | 712 W/m² | - |
| 1777909475 | 23.89° C | 53% | 1018.8 hPa | 0 mm | - | 747 W/m² | - |
| 1777909173 | 23.89° C | 52% | 1018.9 hPa | 0 mm | - | 757 W/m² | - |
| 1777908871 | 25° C | 49% | 1018.8 hPa | 0 mm | - | 760 W/m² | - |
| 1777908568 | 23.89° C | 55% | 1019 hPa | 0 mm | - | 699 W/m² | - |
| 1777908265 | 23.89° C | 53% | 1018.9 hPa | 0 mm | - | 734 W/m² | - |
| 1777907961 | 23.89° C | 52% | 1019 hPa | 0 mm | - | 747 W/m² | - |
| 1777907656 | 23.33° C | 57% | 1018.7 hPa | 0 mm | - | 762 W/m² | - |
| 1777907352 | 23.33° C | 58% | 1018.8 hPa | 0 mm | - | 745 W/m² | - |
| 1777907049 | 23.89° C | 58% | 1018.9 hPa | 0 mm | - | 836 W/m² | - |
| 1777906746 | 22.78° C | 58% | 1018.9 hPa | 0 mm | - | 800 W/m² | - |
| 1777906443 | 22.78° C | 61% | 1019 hPa | 0 mm | - | 760 W/m² | - |
| 1777906140 | 22.78° C | 58% | 1018.9 hPa | 0 mm | - | 733 W/m² | - |
| 1777905836 | 22.22° C | 63% | 1019.1 hPa | 0 mm | - | 767 W/m² | - |
| 1777905533 | 22.22° C | 63% | 1019.1 hPa | 0 mm | - | 742 W/m² | - |
| 1777905230 | 21.11° C | 64% | 1019 hPa | 0 mm | - | 507 W/m² | - |
| 1777904927 | 21.67° C | 63% | 1018.9 hPa | 0 mm | - | 700 W/m² | - |
| 1777904624 | 21.67° C | 66% | 1019 hPa | 0 mm | - | 673 W/m² | - |
| 1777904322 | 21.67° C | 67% | 1019.1 hPa | 0 mm | - | 639 W/m² | - |
| 1777904019 | 21.11° C | 67% | 1019.3 hPa | 0 mm | - | 630 W/m² | - |
| 1777903715 | 21.67° C | 68% | 1019.2 hPa | 0 mm | - | 620 W/m² | - |
| 1777903411 | 20.56° C | 70% | 1019.3 hPa | 0 mm | - | 580 W/m² | - |
| 1777903108 | 20.56° C | 73% | 1019.3 hPa | 0 mm | - | 571 W/m² | - |
| 1777902804 | 20° C | 74% | 1019.3 hPa | 0 mm | - | 555 W/m² | - |
| 1777902502 | 19.44° C | 74% | 1019.5 hPa | 0 mm | - | 532 W/m² | - |
* Rain latest hour (hover to see other rain measurements)
** Current wind speed in m/s (hover to see current wind gust speed)